Time;durP1;ratioP1;P1;durP2;ratioP2;P2;SDS_P1;SDS_P2;PMS_P1;PMS_P2;Temp;Humidity;BMP_temperature;BMP_pressure;BME280_temperature;BME280_humidity;BME280_pressure;Samples;Min_cycle;Max_cycle;Signal;HPM_P1;HPM_P2
2024/02/29 00:00:34;;;;;;;51.83;19.65;;;;;;;1.77;100.00;101253.75;5077309;28;20433;-79
2024/02/29 00:03:08;;;;;;;49.60;20.08;;;;;;;1.76;100.00;101247.56;5077663;28;20893;-79
2024/02/29 00:05:37;;;;;;;49.22;19.10;;;;;;;1.81;100.00;101255.00;5057780;28;20417;-79
2024/02/29 00:08:10;;;;;;;56.42;21.02;;;;;;;1.88;100.00;101250.47;5060329;28;20418;-79
2024/02/29 00:10:44;;;;;;;54.70;20.20;;;;;;;1.92;100.00;101240.97;5076290;28;20412;-79
2024/02/29 00:13:17;;;;;;;53.35;20.20;;;;;;;1.91;100.00;101246.56;5059046;28;20420;-79
2024/02/29 00:15:52;;;;;;;52.25;20.38;;;;;;;1.89;100.00;101249.41;5078485;28;20434;-79
2024/02/29 00:18:20;;;;;;;51.03;20.17;;;;;;;2.00;100.00;101245.28;5080567;28;20421;-79
2024/02/29 00:20:53;;;;;;;54.13;20.48;;;;;;;1.85;100.00;101248.19;5081737;28;20428;-79
2024/02/29 00:23:21;;;;;;;56.53;21.57;;;;;;;1.79;100.00;101240.97;5079340;28;20415;-79
2024/02/29 00:25:49;;;;;;;50.47;21.27;;;;;;;1.82;100.00;101248.59;5058442;28;20916;-79
2024/02/29 00:28:17;;;;;;;53.37;20.60;;;;;;;1.75;100.00;101245.09;5076346;28;20419;-79
2024/02/29 00:30:52;;;;;;;55.33;21.42;;;;;;;1.83;100.00;101236.84;5071862;28;20784;-79
2024/02/29 00:33:26;;;;;;;59.33;23.02;;;;;;;1.76;100.00;101233.34;5077526;28;21097;-79
2024/02/29 00:35:54;;;;;;;53.88;21.70;;;;;;;1.72;100.00;101235.59;5078907;28;21075;-79
2024/02/29 00:38:22;;;;;;;51.38;21.23;;;;;;;1.60;100.00;101238.09;5078631;28;20406;-79
2024/02/29 00:40:50;;;;;;;52.75;22.00;;;;;;;1.56;100.00;101226.13;5061542;28;20448;-79
2024/02/29 00:43:19;;;;;;;53.47;22.33;;;;;;;1.49;100.00;101226.13;5069511;28;20423;-79
2024/02/29 00:45:53;;;;;;;56.50;22.05;;;;;;;1.39;100.00;101223.00;5062064;28;20925;-79
2024/02/29 00:48:21;;;;;;;62.22;23.60;;;;;;;1.35;100.00;101211.03;5059020;28;20479;-79
2024/02/29 00:50:50;;;;;;;61.70;23.52;;;;;;;1.31;100.00;101220.53;5059068;28;20422;-79
2024/02/29 00:53:23;;;;;;;57.10;23.60;;;;;;;1.29;100.00;101217.25;5077269;28;20411;-79
2024/02/29 00:55:51;;;;;;;55.92;22.95;;;;;;;1.23;100.00;101212.69;5060476;28;20440;-79
2024/02/29 00:58:24;;;;;;;56.10;22.47;;;;;;;1.17;100.00;101217.84;5056321;28;20422;-79
2024/02/29 01:00:54;;;;;;;60.10;23.00;;;;;;;1.20;100.00;101205.88;5061599;28;20415;-78
2024/02/29 01:03:28;;;;;;;62.03;23.20;;;;;;;1.12;100.00;101192.66;5059968;28;20763;-79
2024/02/29 01:06:01;;;;;;;60.33;24.17;;;;;;;1.12;100.00;101188.13;5058262;28;20421;-79
2024/02/29 01:08:35;;;;;;;62.05;23.77;;;;;;;1.11;100.00;101185.66;5080657;28;20431;-79
2024/02/29 01:11:08;;;;;;;59.05;22.95;;;;;;;1.07;100.00;101176.38;5064770;28;20422;-79
2024/02/29 01:13:41;;;;;;;63.10;24.87;;;;;;;0.93;100.00;101180.91;5078678;28;20592;-79
2024/02/29 01:16:11;;;;;;;62.70;24.73;;;;;;;0.99;100.00;101169.34;5077266;28;20421;-79
2024/02/29 01:18:40;;;;;;;63.15;24.13;;;;;;;0.97;100.00;101166.88;5079249;28;20422;-79
2024/02/29 01:21:13;;;;;;;71.15;25.38;;;;;;;0.93;100.00;101162.94;5077829;28;20781;-79
2024/02/29 01:23:41;;;;;;;58.60;24.15;;;;;;;0.89;100.00;101159.03;5083547;28;20422;-79
2024/02/29 01:26:14;;;;;;;64.88;24.95;;;;;;;0.92;100.00;101169.34;5052952;28;20432;-79
2024/02/29 01:28:43;;;;;;;65.20;26.02;;;;;;;0.89;100.00;101163.56;5057185;28;20433;-79
2024/02/29 01:31:19;;;;;;;68.07;24.73;;;;;;;0.91;100.00;101157.00;5054617;28;20430;-78
2024/02/29 01:33:53;;;;;;;65.20;24.33;;;;;;;0.74;100.00;101164.56;5059902;28;20434;-79
2024/02/29 01:36:21;;;;;;;66.72;25.05;;;;;;;0.82;100.00;101164.38;5055749;28;20426;-79
2024/02/29 01:38:54;;;;;;;70.70;25.75;;;;;;;0.80;100.00;101165.59;5054658;28;20422;-78
2024/02/29 01:41:22;;;;;;;65.70;25.40;;;;;;;0.78;100.00;101178.38;5059025;28;20424;-79
2024/02/29 01:43:56;;;;;;;68.75;25.88;;;;;;;0.79;100.00;101164.78;5081112;28;20422;-79
2024/02/29 01:46:27;;;;;;;65.03;25.98;;;;;;;0.75;100.00;101171.56;5061667;28;20424;-79
2024/02/29 01:49:01;;;;;;;67.95;26.23;;;;;;;0.74;100.00;101155.72;5065178;28;20419;-79
2024/02/29 01:51:35;;;;;;;67.28;26.13;;;;;;;0.75;100.00;101144.78;5064636;28;21013;-78
2024/02/29 01:54:08;;;;;;;72.55;27.10;;;;;;;0.71;100.00;101145.41;5083756;28;20426;-78
2024/02/29 01:56:42;;;;;;;71.97;27.02;;;;;;;0.79;100.00;101147.91;5084910;28;20410;-79
2024/02/29 01:59:16;;;;;;;65.30;25.33;;;;;;;0.70;100.00;101149.09;5062704;28;20791;-79
2024/02/29 02:01:51;;;;;;;70.30;26.42;;;;;;;0.70;100.00;101141.06;5064673;28;20423;-78
2024/02/29 02:04:24;;;;;;;72.57;26.05;;;;;;;0.63;100.00;101131.16;5064063;28;21195;-79
2024/02/29 02:06:59;;;;;;;63.30;25.45;;;;;;;0.52;100.00;101129.06;5081252;28;20417;-78
2024/02/29 02:09:32;;;;;;;67.77;25.67;;;;;;;0.54;100.00;101118.16;5083827;28;20433;-78
2024/02/29 02:12:06;;;;;;;65.72;24.90;;;;;;;0.55;100.00;101122.47;5070151;28;20901;-78
2024/02/29 02:14:35;;;;;;;70.38;25.70;;;;;;;0.51;100.00;101116.69;5078473;28;21300;-79
2024/02/29 02:17:05;;;;;;;77.67;27.33;;;;;;;0.45;100.00;101114.84;5064421;28;20940;-79
2024/02/29 02:19:33;;;;;;;69.53;26.60;;;;;;;0.46;100.00;101109.28;5061918;28;20418;-78
2024/02/29 02:22:04;;;;;;;64.57;25.37;;;;;;;0.45;100.00;101109.47;5064905;28;20423;-79
2024/02/29 02:24:37;;;;;;;71.05;26.75;;;;;;;0.44;100.00;101110.50;5081345;28;20414;-79
2024/02/29 02:27:10;;;;;;;75.03;27.65;;;;;;;0.45;100.00;101101.44;5078818;28;20427;-78
2024/02/29 02:29:44;;;;;;;71.00;26.40;;;;;;;0.44;100.00;101100.63;5078477;28;20422;-78
2024/02/29 02:32:17;;;;;;;71.07;27.08;;;;;;;0.40;100.00;101098.53;5077811;28;20910;-78
2024/02/29 02:34:50;;;;;;;69.20;27.45;;;;;;;0.34;100.00;101100.19;5080180;28;20429;-79
2024/02/29 02:37:20;;;;;;;66.53;26.17;;;;;;;0.40;100.00;101104.75;5063485;28;21070;-78
2024/02/29 02:39:53;;;;;;;73.20;27.15;;;;;;;0.34;100.00;101090.28;5084587;28;20414;-78
2024/02/29 02:42:26;;;;;;;72.43;27.42;;;;;;;0.35;100.00;101088.44;5061496;28;20449;-79
2024/02/29 02:44:54;;;;;;;69.40;26.33;;;;;;;0.37;100.00;101083.69;5080174;28;20979;-79
2024/02/29 02:47:28;;;;;;;69.38;27.15;;;;;;;0.26;100.00;101076.25;5082745;28;20434;-78
2024/02/29 02:49:56;;;;;;;72.10;27.63;;;;;;;0.29;100.00;101075.84;5065065;28;20437;-79
2024/02/29 02:52:25;;;;;;;72.07;26.63;;;;;;;0.28;100.00;101077.72;5064881;28;20423;-78
2024/02/29 02:54:54;;;;;;;76.28;27.80;;;;;;;0.28;100.00;101060.84;5075904;28;20403;-79
2024/02/29 02:57:27;;;;;;;73.93;26.80;;;;;;;0.29;100.00;101062.47;5058280;28;20435;-79
2024/02/29 03:00:00;;;;;;;74.95;27.75;;;;;;;0.27;100.00;101059.19;5069400;28;20423;-78
2024/02/29 03:02:28;;;;;;;81.60;28.53;;;;;;;0.24;100.00;101051.56;5077255;28;20522;-78
2024/02/29 03:04:57;;;;;;;75.72;27.40;;;;;;;0.23;100.00;101040.00;5081083;28;20414;-78
2024/02/29 03:07:31;;;;;;;70.33;26.67;;;;;;;0.28;100.00;101040.25;5078197;28;20423;-79
2024/02/29 03:10:05;;;;;;;70.83;26.53;;;;;;;0.28;100.00;101040.25;5062942;28;20410;-78
2024/02/29 03:12:39;;;;;;;75.90;28.20;;;;;;;0.25;100.00;101037.13;5076738;28;20418;-79
2024/02/29 03:15:12;;;;;;;77.57;27.90;;;;;;;0.25;100.00;101023.75;5060790;28;20437;-79
2024/02/29 03:17:40;;;;;;;71.00;25.90;;;;;;;0.18;100.00;101026.44;5076614;28;20950;-79
2024/02/29 03:20:14;;;;;;;74.97;27.75;;;;;;;0.21;100.00;101018.00;5068173;28;20444;-78
2024/02/29 03:22:48;;;;;;;68.73;26.93;;;;;;;0.18;100.00;101018.41;5060977;28;20539;-78
2024/02/29 03:25:21;;;;;;;71.68;26.58;;;;;;;0.20;100.00;101021.69;5081663;28;20418;-78
2024/02/29 03:27:55;;;;;;;71.40;27.00;;;;;;;0.14;100.00;101026.00;5077105;28;20435;-78
2024/02/29 03:30:28;;;;;;;75.55;27.00;;;;;;;0.14;100.00;101033.22;5062316;28;20905;-78
2024/02/29 03:33:01;;;;;;;71.72;26.25;;;;;;;0.13;100.00;101021.66;5076990;28;20443;-78
2024/02/29 03:35:34;;;;;;;75.65;27.77;;;;;;;0.16;100.00;101020.44;5079055;28;20417;-79
2024/02/29 03:38:04;;;;;;;72.70;26.58;;;;;;;0.16;100.00;101013.22;5074267;28;20424;-78
2024/02/29 03:40:37;;;;;;;74.75;27.92;;;;;;;0.13;100.00;101010.16;5082282;28;20870;-78
2024/02/29 03:43:06;;;;;;;73.85;26.23;;;;;;;0.11;100.00;101005.00;5080856;28;20429;-78
2024/02/29 03:45:39;;;;;;;71.35;25.88;;;;;;;0.17;100.00;101006.03;5079665;28;20429;-78
2024/02/29 03:48:12;;;;;;;66.55;26.02;;;;;;;0.11;100.00;101005.00;5067298;28;20442;-78
2024/02/29 03:50:45;;;;;;;62.50;24.47;;;;;;;0.10;100.00;101000.66;5059754;28;20532;-78
2024/02/29 03:53:20;;;;;;;67.20;25.92;;;;;;;0.10;100.00;101002.53;5080639;28;20424;-79
2024/02/29 03:55:53;;;;;;;66.07;25.55;;;;;;;0.04;100.00;100998.78;5079054;28;20431;-78
2024/02/29 03:58:27;;;;;;;68.65;26.48;;;;;;;0.04;100.00;100992.63;5079543;28;20423;-79
2024/02/29 04:00:55;;;;;;;70.30;25.85;;;;;;;0.05;100.00;101003.13;5076788;28;20402;-78
2024/02/29 04:03:28;;;;;;;72.57;26.90;;;;;;;0.05;100.00;100986.25;5080696;28;20422;-78
2024/02/29 04:06:01;;;;;;;64.88;24.67;;;;;;;0.01;100.00;100976.97;5079830;28;20422;-78
2024/02/29 04:08:31;;;;;;;67.00;25.95;;;;;;;-0.02;100.00;100992.41;5060635;28;20553;-79
2024/02/29 04:10:59;;;;;;;66.63;26.27;;;;;;;0.03;100.00;100991.81;5076426;28;20434;-79
2024/02/29 04:13:33;;;;;;;71.18;26.50;;;;;;;0.01;100.00;100982.31;5076604;28;20412;-78
2024/02/29 04:16:02;;;;;;;67.32;25.08;;;;;;;0.03;100.00;100974.91;5077008;28;20417;-78
2024/02/29 04:18:30;;;;;;;64.25;25.60;;;;;;;-0.03;100.00;100982.75;5068612;28;20419;-78
2024/02/29 04:20:58;;;;;;;65.70;25.27;;;;;;;0.03;100.00;100978.44;5076373;28;20416;-78
2024/02/29 04:23:33;;;;;;;66.82;25.10;;;;;;;-0.04;100.00;100981.09;5076317;28;20795;-78
2024/02/29 04:26:07;;;;;;;63.70;24.85;;;;;;;0.01;100.00;100976.97;5059338;28;20435;-78
2024/02/29 04:28:40;;;;;;;62.22;24.77;;;;;;;-0.05;100.00;100979.44;5073911;28;20429;-78
2024/02/29 04:31:09;;;;;;;66.20;25.02;;;;;;;-0.08;100.00;100976.34;5079450;28;20414;-79
2024/02/29 04:33:43;;;;;;;64.50;25.20;;;;;;;-0.09;100.00;100964.81;5077706;28;20411;-78
2024/02/29 04:36:17;;;;;;;67.82;25.20;;;;;;;-0.11;100.00;100956.16;5077275;28;20436;-79
2024/02/29 04:38:51;;;;;;;65.40;24.52;;;;;;;-0.05;100.00;100951.84;5070062;28;20422;-79
2024/02/29 04:41:25;;;;;;;59.42;23.17;;;;;;;-0.05;100.00;100958.03;5076018;28;20424;-79
2024/02/29 04:43:53;;;;;;;62.33;23.93;;;;;;;-0.11;100.00;100958.00;5076147;28;20425;-78
2024/02/29 04:46:26;;;;;;;60.78;24.02;;;;;;;-0.08;100.00;100949.59;5080648;28;20431;-79
2024/02/29 04:48:59;;;;;;;63.38;24.05;;;;;;;-0.11;100.00;100942.78;5078956;28;20418;-78
2024/02/29 04:51:32;;;;;;;63.42;24.80;;;;;;;-0.10;100.00;100952.44;5058340;28;20462;-78
2024/02/29 04:54:07;;;;;;;64.43;23.77;;;;;;;-0.14;100.00;100948.53;5076385;28;20415;-78
2024/02/29 04:56:41;;;;;;;60.30;24.42;;;;;;;-0.15;100.00;100941.56;5079105;28;20433;-78
2024/02/29 04:59:14;;;;;;;58.90;24.52;;;;;;;-0.15;100.00;100935.34;5079909;28;20413;-79
2024/02/29 05:01:47;;;;;;;60.22;24.40;;;;;;;-0.16;100.00;100931.88;5073117;28;20425;-79
2024/02/29 05:04:20;;;;;;;59.25;23.73;;;;;;;-0.13;100.00;100930.66;5074192;28;20424;-78
2024/02/29 05:06:54;;;;;;;58.63;22.48;;;;;;;-0.16;100.00;100926.53;5074897;28;20451;-79
2024/02/29 05:09:28;;;;;;;60.83;23.60;;;;;;;-0.06;100.00;100918.91;5061785;28;20440;-78
2024/02/29 05:11:56;;;;;;;57.30;22.80;;;;;;;-0.19;100.00;100925.06;5075716;28;20797;-79
2024/02/29 05:14:25;;;;;;;60.42;23.90;;;;;;;-0.24;100.00;100919.50;5077704;28;20406;-78
2024/02/29 05:16:58;;;;;;;58.45;23.98;;;;;;;-0.22;100.00;100916.59;5075566;28;20817;-79
2024/02/29 05:19:26;;;;;;;60.00;23.67;;;;;;;-0.30;100.00;100923.00;5076426;28;20518;-78
2024/02/29 05:21:55;;;;;;;60.75;23.75;;;;;;;-0.31;100.00;100921.34;5057556;28;20431;-79
2024/02/29 05:24:24;;;;;;;61.33;23.58;;;;;;;-0.30;100.00;100912.28;5081511;28;20476;-78
2024/02/29 05:26:54;;;;;;;61.13;24.25;;;;;;;-0.33;100.00;100912.69;5078295;28;20411;-78
2024/02/29 05:29:22;;;;;;;56.30;23.83;;;;;;;-0.37;100.00;100909.59;5066991;28;20423;-78
2024/02/29 05:31:51;;;;;;;59.47;23.55;;;;;;;-0.33;100.00;100903.84;5064512;28;20423;-79
2024/02/29 05:34:24;;;;;;;58.10;23.48;;;;;;;-0.33;100.00;100904.69;5060283;28;20431;-78
2024/02/29 05:36:58;;;;;;;58.58;23.20;;;;;;;-0.40;100.00;100901.13;5077427;28;20415;-79
2024/02/29 05:39:26;;;;;;;58.42;23.65;;;;;;;-0.42;100.00;100901.34;5056453;28;20433;-78
2024/02/29 05:42:01;;;;;;;60.55;24.55;;;;;;;-0.41;100.00;100902.19;5064356;28;20422;-79
2024/02/29 05:44:34;;;;;;;60.40;24.48;;;;;;;-0.32;100.00;100900.97;5075451;28;20776;-78
2024/02/29 05:47:03;;;;;;;57.40;24.35;;;;;;;-0.39;100.00;100897.44;5053915;28;20431;-78
2024/02/29 05:49:36;;;;;;;52.80;22.00;;;;;;;-0.39;100.00;100906.31;5075295;28;20415;-79
2024/02/29 05:52:09;;;;;;;61.25;23.50;;;;;;;-0.32;100.00;100900.16;5057173;28;20414;-78
2024/02/29 05:54:43;;;;;;;56.90;22.55;;;;;;;-0.41;100.00;100897.66;5080550;28;20874;-78
2024/02/29 05:57:17;;;;;;;57.47;22.80;;;;;;;-0.33;100.00;100893.97;5078262;28;20420;-79
2024/02/29 05:59:45;;;;;;;55.97;22.25;;;;;;;-0.34;100.00;100900.34;5060534;28;20419;-79
2024/02/29 06:02:14;;;;;;;54.40;22.60;;;;;;;-0.43;100.00;100905.06;5068777;28;20889;-78
2024/02/29 06:04:47;;;;;;;52.67;21.90;;;;;;;-0.41;100.00;100897.66;5073163;28;20427;-78
2024/02/29 06:07:20;;;;;;;52.30;21.88;;;;;;;-0.49;100.00;100892.47;5057893;28;20435;-79
2024/02/29 06:09:48;;;;;;;55.22;23.00;;;;;;;-0.47;100.00;100893.13;5076694;28;20413;-79
2024/02/29 06:12:23;;;;;;;54.08;21.67;;;;;;;-0.46;100.00;100891.25;5057564;28;20420;-79
2024/02/29 06:14:56;;;;;;;50.25;21.52;;;;;;;-0.46;100.00;100893.94;5076729;28;20422;-79
2024/02/29 06:17:29;;;;;;;45.77;20.63;;;;;;;-0.46;100.00;100889.41;5078817;28;20512;-79
2024/02/29 06:19:59;;;;;;;51.40;21.25;;;;;;;-0.45;100.00;100893.72;5057620;28;20423;-82
2024/02/29 06:22:33;;;;;;;53.47;20.80;;;;;;;-0.48;100.00;100888.78;5073983;28;20473;-79
2024/02/29 06:25:08;;;;;;;53.83;21.27;;;;;;;-0.47;100.00;100885.09;5072833;28;20433;-78
2024/02/29 06:27:39;;;;;;;50.75;21.08;;;;;;;-0.35;100.00;100883.50;5076821;28;21053;-79
2024/02/29 06:30:08;;;;;;;54.33;21.42;;;;;;;-0.35;100.00;100888.84;5072399;28;20428;-79
2024/02/29 06:32:44;;;;;;;52.67;20.40;;;;;;;-0.31;100.00;100880.41;5063367;28;20418;-82
2024/02/29 06:35:17;;;;;;;51.13;20.23;;;;;;;-0.30;100.00;100887.38;5067087;28;20420;-82
2024/02/29 06:37:51;;;;;;;50.33;20.23;;;;;;;-0.32;100.00;100878.75;5075710;28;21541;-82
2024/02/29 06:40:24;;;;;;;49.97;20.67;;;;;;;-0.30;100.00;100879.34;5076983;28;20766;-82
2024/02/29 06:42:59;;;;;;;50.70;20.60;;;;;;;-0.28;100.00;100874.63;5058613;28;20427;-82
2024/02/29 06:45:32;;;;;;;53.40;20.60;;;;;;;-0.17;100.00;100876.72;5073490;28;20413;-81
2024/02/29 06:48:01;;;;;;;49.58;19.35;;;;;;;-0.13;100.00;100879.81;5050864;28;20914;-82
2024/02/29 06:50:34;;;;;;;50.95;20.20;;;;;;;-0.13;100.00;100883.31;5078502;28;20423;-81
2024/02/29 06:53:07;;;;;;;50.92;20.17;;;;;;;-0.07;100.00;100870.97;5075341;28;20421;-81
2024/02/29 06:55:40;;;;;;;44.85;20.15;;;;;;;-0.01;100.00;100870.97;5059797;28;20427;-83
2024/02/29 06:58:15;;;;;;;46.38;19.77;;;;;;;0.05;100.00;100866.66;5086088;28;20422;-84
2024/02/29 07:00:48;;;;;;;48.00;20.23;;;;;;;0.05;100.00;100865.84;5084280;28;20428;-82
2024/02/29 07:03:17;;;;;;;44.05;19.52;;;;;;;0.11;100.00;100857.81;5061535;28;20419;-83
2024/02/29 07:05:50;;;;;;;45.07;18.77;;;;;;;0.20;100.00;100868.31;5069076;28;20427;-82
2024/02/29 07:08:24;;;;;;;45.88;19.55;;;;;;;0.25;100.00;100868.50;5078315;28;20437;-83
2024/02/29 07:10:52;;;;;;;47.00;19.25;;;;;;;0.30;100.00;100860.66;5060544;28;20450;-83
2024/02/29 07:13:27;;;;;;;44.00;19.23;;;;;;;0.32;100.00;100862.13;5066889;28;20434;-81
2024/02/29 07:15:55;;;;;;;39.30;17.57;;;;;;;0.45;100.00;100865.81;5072649;28;20496;-82
2024/02/29 07:18:28;;;;;;;42.43;18.97;;;;;;;0.51;100.00;100870.31;5072647;28;20523;-78
2024/02/29 07:20:57;;;;;;;44.33;18.85;;;;;;;0.67;100.00;100863.72;5076955;28;20427;-82
2024/02/29 07:23:31;;;;;;;40.88;18.83;;;;;;;0.66;100.00;100860.22;5071956;28;20787;-82
2024/02/29 07:26:02;;;;;;;38.95;18.23;;;;;;;0.68;100.00;100857.34;5054276;28;20423;-82
2024/02/29 07:28:39;;;;;;;40.63;17.57;;;;;;;0.73;100.00;100852.16;5061922;28;21057;-82
2024/02/29 07:31:12;;;;;;;43.73;19.13;;;;;;;0.93;100.00;100857.47;5032068;28;20430;-82
2024/02/29 07:33:41;;;;;;;40.37;17.60;;;;;;;0.90;100.00;100857.88;5042452;28;20833;-82
2024/02/29 07:36:14;;;;;;;41.80;17.73;;;;;;;1.05;100.00;100854.13;5038694;28;20932;-81
2024/02/29 07:38:42;;;;;;;40.77;18.13;;;;;;;1.11;100.00;100851.41;5042782;28;20440;-81
2024/02/29 07:41:10;;;;;;;41.42;17.63;;;;;;;1.11;100.00;100851.41;5057453;28;20448;-82
2024/02/29 07:43:45;;;;;;;37.58;17.40;;;;;;;1.25;100.00;100849.50;5056312;28;20438;-82
2024/02/29 07:46:13;;;;;;;39.42;17.85;;;;;;;1.28;100.00;100849.06;5038721;28;21707;-81
2024/02/29 07:48:47;;;;;;;39.33;17.02;;;;;;;1.39;100.00;100849.44;5056494;28;20460;-81
2024/02/29 07:51:21;;;;;;;38.88;17.50;;;;;;;1.38;100.00;100845.91;5048589;28;20430;-81
2024/02/29 07:53:54;;;;;;;35.72;16.23;;;;;;;1.47;100.00;100841.13;5062357;28;21461;-82
2024/02/29 07:56:29;;;;;;;39.47;17.08;;;;;;;1.60;100.00;100838.38;5045519;28;22040;-82
2024/02/29 07:59:01;;;;;;;36.60;17.63;;;;;;;1.62;100.00;100844.34;5040875;28;21069;-82
2024/02/29 08:01:29;;;;;;;34.05;16.02;;;;;;;1.64;100.00;100842.28;5046361;28;20926;-82
2024/02/29 08:03:58;;;;;;;36.67;16.52;;;;;;;1.79;100.00;100835.75;5044923;28;20448;-82
2024/02/29 08:06:26;;;;;;;34.03;15.73;;;;;;;1.81;100.00;100831.84;5042530;28;20792;-83
2024/02/29 08:09:02;;;;;;;36.20;15.50;;;;;;;1.85;100.00;100835.72;5066649;28;20421;-83
2024/02/29 08:11:30;;;;;;;34.13;15.80;;;;;;;2.04;100.00;100836.63;5044709;28;20429;-82
2024/02/29 08:14:05;;;;;;;33.03;16.17;;;;;;;2.10;100.00;100829.53;5064790;28;20425;-82
2024/02/29 08:16:38;;;;;;;34.65;15.77;;;;;;;2.17;100.00;100826.81;5038046;28;20430;-81
2024/02/29 08:19:11;;;;;;;35.53;15.40;;;;;;;2.25;100.00;100817.63;5061390;28;20433;-81
2024/02/29 08:21:40;;;;;;;34.35;15.45;;;;;;;2.38;100.00;100829.06;5070260;28;20419;-82
2024/02/29 08:24:13;;;;;;;33.30;15.90;;;;;;;2.36;100.00;100822.25;5043239;28;20437;-83
2024/02/29 08:26:46;;;;;;;33.87;14.87;;;;;;;2.48;100.00;100820.50;5066958;28;21975;-81
2024/02/29 08:29:16;;;;;;;32.58;15.10;;;;;;;2.67;100.00;100807.88;5031330;28;20515;-82
2024/02/29 08:31:44;;;;;;;31.08;14.48;;;;;;;2.68;100.00;100806.84;5039238;28;20441;-81
2024/02/29 08:34:18;;;;;;;32.67;14.73;;;;;;;2.66;100.00;100803.56;5039624;28;20454;-82
2024/02/29 08:36:51;;;;;;;29.83;13.82;;;;;;;2.79;100.00;100809.81;5037580;28;20445;-82
2024/02/29 08:39:24;;;;;;;29.48;14.15;;;;;;;2.83;100.00;100809.16;5039209;28;20426;-81
2024/02/29 08:41:52;;;;;;;28.85;13.73;;;;;;;3.02;100.00;100793.81;5039067;28;20426;-82
2024/02/29 08:44:27;;;;;;;30.25;14.15;;;;;;;3.12;100.00;100787.09;5057729;28;22310;-82
2024/02/29 08:47:03;;;;;;;28.17;13.23;;;;;;;3.27;100.00;100789.38;5064402;28;20425;-81
2024/02/29 08:49:37;;;;;;;29.13;13.73;;;;;;;3.35;100.00;100795.25;5041688;28;20448;-81
2024/02/29 08:52:07;;;;;;;29.98;14.35;;;;;;;3.45;100.00;100789.28;5038168;28;21033;-82
2024/02/29 08:54:36;;;;;;;31.15;14.10;;;;;;;3.47;100.00;100786.41;5038990;28;20426;-82
2024/02/29 08:57:04;;;;;;;27.92;13.38;;;;;;;3.49;100.00;100784.28;5056646;28;20460;-82
2024/02/29 08:59:34;;;;;;;27.30;13.20;;;;;;;3.54;100.00;100785.25;5037974;28;20429;-82
2024/02/29 09:02:07;;;;;;;26.50;12.63;;;;;;;3.69;100.00;100784.81;5068122;28;20584;-82
2024/02/29 09:04:36;;;;;;;25.33;12.45;;;;;;;3.78;100.00;100787.97;5044739;28;20437;-82
2024/02/29 09:07:09;;;;;;;26.40;13.40;;;;;;;3.84;100.00;100778.97;5039853;28;20469;-82
2024/02/29 09:09:41;;;;;;;25.75;13.15;;;;;;;3.92;100.00;100773.25;5059250;28;20422;-81
2024/02/29 09:12:17;;;;;;;28.08;13.55;;;;;;;3.98;100.00;100773.34;5039933;28;20418;-81
2024/02/29 09:14:52;;;;;;;27.03;13.03;;;;;;;4.05;100.00;100777.59;5040740;28;20438;-82
2024/02/29 09:17:25;;;;;;;26.48;13.52;;;;;;;4.05;100.00;100774.09;5036228;28;20437;-82
2024/02/29 09:19:53;;;;;;;26.45;12.98;;;;;;;4.12;100.00;100766.69;5041205;28;20438;-82
2024/02/29 09:22:26;;;;;;;27.13;13.93;;;;;;;4.26;100.00;100768.09;5062485;28;20430;-82
2024/02/29 09:24:54;;;;;;;25.47;12.43;;;;;;;4.41;100.00;100759.53;5048964;28;20485;-82
2024/02/29 09:27:27;;;;;;;27.17;12.82;;;;;;;4.45;100.00;100754.50;5046559;28;21340;-82
2024/02/29 09:30:02;;;;;;;26.45;12.40;;;;;;;4.71;100.00;100761.22;5069720;28;20444;-82
2024/02/29 09:32:35;;;;;;;23.80;12.18;;;;;;;4.87;100.00;100753.44;5043943;28;20421;-80
2024/02/29 09:35:09;;;;;;;23.40;12.27;;;;;;;4.89;100.00;100744.06;5061615;28;20436;-82
2024/02/29 09:37:42;;;;;;;23.13;11.38;;;;;;;4.94;100.00;100746.03;5061471;28;20425;-83
2024/02/29 09:40:11;;;;;;;24.23;12.02;;;;;;;5.08;100.00;100757.34;5043188;28;20437;-83
2024/02/29 09:42:39;;;;;;;22.90;11.63;;;;;;;5.27;100.00;100755.25;5038684;28;21880;-84
2024/02/29 09:45:15;;;;;;;20.83;10.40;;;;;;;5.38;100.00;100753.56;5036229;28;21030;-83
2024/02/29 09:47:48;;;;;;;21.67;10.32;;;;;;;5.48;100.00;100745.63;5035992;28;20449;-83
2024/02/29 09:50:22;;;;;;;19.67;10.45;;;;;;;5.54;100.00;100739.28;5057329;28;20779;-83
2024/02/29 09:52:53;;;;;;;22.80;10.88;;;;;;;5.67;100.00;100732.72;5060746;28;20433;-83
2024/02/29 09:55:22;;;;;;;21.60;10.48;;;;;;;5.73;100.00;100739.00;5066858;28;20410;-83
2024/02/29 09:57:51;;;;;;;22.17;10.68;;;;;;;5.81;100.00;100730.50;5047661;28;20440;-83
2024/02/29 10:00:26;;;;;;;17.98;9.77;;;;;;;5.90;100.00;100725.53;5039887;28;20437;-83
2024/02/29 10:03:01;;;;;;;19.88;10.10;;;;;;;6.05;100.00;100720.38;5063198;28;20418;-83
2024/02/29 10:05:35;;;;;;;20.55;9.90;;;;;;;6.15;100.00;100725.09;5069014;28;20424;-83
2024/02/29 10:08:09;;;;;;;19.40;9.63;;;;;;;6.18;100.00;100721.88;5064820;28;20417;-82
2024/02/29 10:10:42;;;;;;;22.92;10.25;;;;;;;6.28;100.00;100713.94;5063456;28;20436;-83
2024/02/29 10:13:10;;;;;;;19.35;10.23;;;;;;;6.29;100.00;100710.13;5046390;28;20414;-82
2024/02/29 10:15:44;;;;;;;18.98;10.05;;;;;;;6.49;100.00;100705.25;5068942;28;20782;-83
2024/02/29 10:18:13;;;;;;;18.50;9.70;;;;;;;6.56;100.00;100714.81;5049089;28;20912;-82
2024/02/29 10:20:46;;;;;;;19.10;9.32;;;;;;;6.55;100.00;100704.25;5070011;28;20433;-83
2024/02/29 10:23:19;;;;;;;17.48;9.15;;;;;;;6.47;100.00;100700.09;5047132;28;21126;-83
2024/02/29 10:25:48;;;;;;;19.10;9.10;;;;;;;6.42;100.00;100695.47;5066135;28;20437;-83
2024/02/29 10:28:21;;;;;;;19.02;9.10;;;;;;;6.70;100.00;100699.03;5051023;28;20422;-88
2024/02/29 10:30:57;;;;;;;20.65;9.75;;;;;;;6.71;100.00;100692.53;5061905;28;20817;-83
2024/02/29 10:33:32;;;;;;;20.30;9.55;;;;;;;6.69;100.00;100697.38;5051047;28;21669;-83
2024/02/29 10:36:11;;;;;;;16.92;8.93;;;;;;;6.90;100.00;100703.00;5050997;28;21677;-83
2024/02/29 10:38:39;;;;;;;17.90;9.40;;;;;;;6.90;100.00;100687.59;5064898;28;20426;-83
2024/02/29 10:41:10;;;;;;;18.17;8.95;;;;;;;7.01;100.00;100690.41;5059535;28;20433;-83
2024/02/29 10:43:38;;;;;;;16.73;8.60;;;;;;;7.10;100.00;100684.28;5047569;28;20441;-83
2024/02/29 10:46:15;;;;;;;17.60;8.73;;;;;;;7.20;100.00;100683.56;5072107;28;20438;-83
2024/02/29 10:48:55;;;;;;;19.58;9.93;;;;;;;7.23;100.00;100674.91;5044414;28;21115;-83
2024/02/29 10:51:33;;;;;;;17.17;8.73;;;;;;;7.35;100.00;100677.47;5067065;28;20441;-83
2024/02/29 10:54:12;;;;;;;17.60;9.25;;;;;;;7.26;100.00;100671.69;5069117;28;20436;-83
2024/02/29 10:56:43;;;;;;;17.48;9.30;;;;;;;7.45;100.00;100674.00;5053007;28;20426;-83
2024/02/29 10:59:17;;;;;;;18.67;9.63;;;;;;;7.44;100.00;100656.97;5046441;28;20438;-84
2024/02/29 11:01:57;;;;;;;17.25;8.82;;;;;;;7.38;100.00;100651.75;5047473;28;20449;-83
2024/02/29 11:04:26;;;;;;;16.27;9.32;;;;;;;7.55;100.00;100651.59;5046218;28;20426;-83
2024/02/29 11:06:55;;;;;;;16.30;8.57;;;;;;;7.56;100.00;100647.81;5047214;28;20448;-84
2024/02/29 11:09:31;;;;;;;14.98;7.78;;;;;;;7.59;100.00;100645.41;5044631;28;21833;-83
2024/02/29 11:12:10;;;;;;;18.05;8.80;;;;;;;7.70;100.00;100650.91;5048706;28;20425;-83
2024/02/29 11:14:44;;;;;;;16.92;8.90;;;;;;;7.76;100.00;100645.25;5061171;28;20422;-83
2024/02/29 11:17:19;;;;;;;15.52;8.65;;;;;;;7.82;100.00;100644.19;5049474;28;20426;-83
2024/02/29 11:20:03;;;;;;;17.08;8.77;;;;;;;7.88;100.00;100641.53;5043307;28;20488;-83
2024/02/29 11:22:33;;;;;;;16.57;8.63;;;;;;;8.00;100.00;100637.50;5049914;28;20949;-89
2024/02/29 11:25:08;;;;;;;15.18;7.90;;;;;;;8.16;100.00;100632.16;5049870;28;21082;-82
2024/02/29 11:27:46;;;;;;;14.13;7.85;;;;;;;8.21;100.00;100632.19;5063190;28;20504;-82
2024/02/29 11:30:21;;;;;;;16.95;8.20;;;;;;;8.21;100.00;100625.97;5016924;28;20424;-82